createdAt,value
2022-11-27T00:00:38.789Z,1999.90
2022-11-27T00:03:05.389Z,1999.90
2022-11-27T00:05:32.204Z,1999.90
2022-11-27T00:07:58.830Z,1999.90
2022-11-27T00:10:25.433Z,1999.90
2022-11-27T00:12:51.918Z,1999.90
2022-11-27T00:15:18.878Z,1999.90
2022-11-27T00:17:45.333Z,1999.90
2022-11-27T00:20:12.424Z,1999.90
2022-11-27T00:22:38.912Z,1999.90
2022-11-27T00:25:05.828Z,1999.90
2022-11-27T00:27:32.366Z,1999.90
2022-11-27T00:29:58.872Z,1999.90
2022-11-27T00:32:25.345Z,1999.90
2022-11-27T00:34:51.890Z,1999.90
2022-11-27T00:37:18.420Z,1999.90
2022-11-27T00:39:44.937Z,1999.90
2022-11-27T00:42:11.483Z,1999.90
2022-11-27T00:44:38.271Z,1999.90
2022-11-27T00:47:05.193Z,1999.90
2022-11-27T00:49:32.350Z,1999.90
2022-11-27T00:51:59.078Z,1999.90
2022-11-27T00:54:25.551Z,1999.90
2022-11-27T00:56:52.062Z,1999.90
2022-11-27T00:59:18.607Z,1999.90
2022-11-27T01:01:45.218Z,1999.90
2022-11-27T01:04:13.977Z,1999.90
2022-11-27T01:06:40.971Z,1999.90
2022-11-27T01:09:07.817Z,1999.90
2022-11-27T01:11:34.849Z,1999.90
2022-11-27T01:14:04.525Z,1999.90
2022-11-27T01:16:31.748Z,1999.90
2022-11-27T01:18:59.073Z,1999.90
2022-11-27T01:21:26.610Z,1999.90
2022-11-27T01:23:53.914Z,1999.90
2022-11-27T01:26:20.496Z,1999.90
2022-11-27T01:28:46.947Z,1999.90
2022-11-27T01:31:15.486Z,1999.90
2022-11-27T01:33:42.373Z,1999.90
2022-11-27T01:36:10.048Z,1999.90
2022-11-27T01:38:36.706Z,1999.90
2022-11-27T01:41:06.547Z,1999.90
2022-11-27T01:43:36.712Z,1999.90
2022-11-27T01:46:03.260Z,1999.90
2022-11-27T01:48:29.773Z,1999.90
2022-11-27T01:50:56.532Z,1999.90
2022-11-27T01:53:23.006Z,1999.90
2022-11-27T01:55:52.166Z,1999.90
2022-11-27T01:58:21.821Z,1999.90
2022-11-27T02:00:48.289Z,1999.90
2022-11-27T02:03:16.034Z,1999.90
2022-11-27T02:05:42.637Z,1999.90
2022-11-27T02:08:13.807Z,1999.90
2022-11-27T02:10:49.417Z,1999.90
2022-11-27T02:13:30.953Z,1999.90
2022-11-27T02:16:13.735Z,1999.90
2022-11-27T02:19:01.758Z,1999.90
2022-11-27T02:21:39.406Z,1999.90
2022-11-27T02:24:34.689Z,1999.90
2022-11-27T02:27:01.032Z,1999.90
2022-11-27T02:29:29.656Z,1999.90
2022-11-27T02:31:58.949Z,1999.90
2022-11-27T02:34:34.930Z,1999.90
2022-11-27T02:37:15.052Z,1999.90
2022-11-27T02:39:50.174Z,1999.90
2022-11-27T02:42:20.392Z,1999.90
2022-11-27T02:47:16.135Z,1999.90
2022-11-27T02:49:42.857Z,1999.90
2022-11-27T02:52:09.329Z,1999.90
2022-11-27T02:54:35.863Z,1999.90
2022-11-27T02:57:03.692Z,1999.90
2022-11-27T02:59:31.224Z,1999.90
2022-11-27T03:02:00.859Z,1999.90
2022-11-27T03:04:32.319Z,1999.90
2022-11-27T03:06:59.550Z,1999.90
2022-11-27T03:09:36.644Z,1999.90
2022-11-27T03:12:04.251Z,1999.90
2022-11-27T03:14:30.713Z,1999.90
2022-11-27T03:17:02.520Z,1999.90
2022-11-27T03:19:46.240Z,1999.90
2022-11-27T03:22:12.776Z,1999.90
2022-11-27T03:24:39.692Z,1999.90
2022-11-27T03:27:06.433Z,1999.90
2022-11-27T03:29:37.172Z,1999.90
2022-11-27T03:32:03.823Z,1999.90
2022-11-27T03:34:30.285Z,1999.90
2022-11-27T03:36:56.753Z,1999.90
2022-11-27T03:39:23.214Z,1999.90
2022-11-27T03:42:34.318Z,1999.90
2022-11-27T03:45:25.192Z,1999.90
2022-11-27T03:48:44.239Z,1999.90
2022-11-27T03:51:28.927Z,1999.90
2022-11-27T03:54:34.371Z,1999.90
2022-11-27T03:57:14.521Z,1999.90
2022-11-27T03:59:42.253Z,1999.90
2022-11-27T04:02:15.194Z,1999.90
2022-11-27T04:04:41.979Z,1999.90
2022-11-27T04:07:13.810Z,1999.90
2022-11-27T04:09:40.295Z,1999.90
2022-11-27T04:12:07.215Z,1999.90
2022-11-27T04:14:33.935Z,1999.90
2022-11-27T04:17:00.413Z,1999.90
2022-11-27T04:19:26.869Z,1999.90
2022-11-27T04:21:53.356Z,1999.90
2022-11-27T04:24:19.964Z,1999.90
2022-11-27T04:26:46.427Z,1999.90
2022-11-27T04:29:12.906Z,1999.90
2022-11-27T04:31:39.849Z,1999.90
2022-11-27T04:34:06.379Z,1999.90
2022-11-27T04:36:38.818Z,1999.90
2022-11-27T04:39:05.826Z,1999.90
2022-11-27T04:41:32.323Z,1999.90
2022-11-27T04:43:58.789Z,1999.90
2022-11-27T04:46:25.269Z,1999.90
2022-11-27T04:48:51.764Z,1999.90
2022-11-27T04:51:18.235Z,1999.90
2022-11-27T04:53:44.699Z,1999.90
2022-11-27T04:56:11.147Z,1999.90
2022-11-27T04:58:37.909Z,1999.90
2022-11-27T05:01:04.398Z,1999.90
2022-11-27T05:03:30.905Z,1999.90
2022-11-27T05:05:57.523Z,1999.90
2022-11-27T05:08:24.806Z,1999.90
2022-11-27T05:11:04.878Z,1999.90
2022-11-27T05:13:31.402Z,1999.90
2022-11-27T05:15:57.909Z,1999.90
2022-11-27T05:18:24.465Z,1999.90
2022-11-27T05:21:05.182Z,1999.90
2022-11-27T05:23:31.959Z,1999.90
2022-11-27T05:25:58.450Z,1999.90
2022-11-27T05:28:26.859Z,1999.90
2022-11-27T05:30:54.091Z,1999.90
2022-11-27T05:33:20.717Z,1999.90
2022-11-27T05:35:47.173Z,1999.90
2022-11-27T05:38:13.666Z,1999.90
2022-11-27T05:40:40.118Z,1999.90
2022-11-27T05:43:07.044Z,1999.90
2022-11-27T05:45:33.506Z,1999.90
2022-11-27T05:48:00.019Z,1999.90
2022-11-27T05:50:26.497Z,1999.90
2022-11-27T05:52:52.979Z,1999.90
2022-11-27T05:55:19.470Z,1999.90
2022-11-27T05:57:45.961Z,1999.90
2022-11-27T06:00:12.968Z,1999.90
2022-11-27T06:02:39.555Z,1999.90
2022-11-27T06:05:06.876Z,1999.90
2022-11-27T06:07:33.392Z,1999.90
2022-11-27T06:09:59.908Z,1999.90
2022-11-27T06:12:26.594Z,1999.90
2022-11-27T06:14:53.037Z,1999.90
2022-11-27T06:17:19.508Z,1999.90
2022-11-27T06:19:46.071Z,1999.90
2022-11-27T06:22:12.533Z,1999.90
2022-11-27T06:24:39.319Z,1999.90
2022-11-27T06:27:06.073Z,1999.90
2022-11-27T06:29:32.538Z,1999.90
2022-11-27T06:31:59.061Z,1999.90
2022-11-27T06:34:25.566Z,1999.90
2022-11-27T06:36:52.381Z,1999.90
2022-11-27T06:39:19.122Z,1999.90
2022-11-27T06:41:45.573Z,1999.90
2022-11-27T06:44:12.047Z,1999.90
2022-11-27T06:46:38.840Z,1999.90
2022-11-27T06:49:05.358Z,1999.90
2022-11-27T06:51:32.175Z,1999.90
2022-11-27T06:54:01.892Z,1999.90
2022-11-27T06:56:29.511Z,1999.90
2022-11-27T06:58:57.639Z,1999.90
2022-11-27T07:01:25.325Z,1999.90
2022-11-27T07:03:51.868Z,1999.90
2022-11-27T07:06:20.210Z,1999.90
2022-11-27T07:08:46.820Z,1999.90
2022-11-27T07:11:18.460Z,1999.90
2022-11-27T07:13:48.556Z,1999.90
2022-11-27T07:16:15.477Z,1999.90
2022-11-27T07:18:43.567Z,1999.90
2022-11-27T07:21:10.230Z,1999.90
2022-11-27T07:23:36.820Z,1999.90
2022-11-27T07:26:17.113Z,1999.90
2022-11-27T07:31:14.236Z,1999.90
2022-11-27T07:33:40.796Z,1999.90
2022-11-27T07:36:10.799Z,1999.90
2022-11-27T07:38:37.276Z,1999.90
2022-11-27T07:41:04.087Z,1999.90
2022-11-27T07:43:31.241Z,1999.90
2022-11-27T07:45:57.769Z,1999.90
2022-11-27T07:48:24.303Z,1999.90
2022-11-27T07:50:50.811Z,1999.90
2022-11-27T07:53:17.316Z,1999.90
2022-11-27T07:55:43.798Z,1999.90
2022-11-27T07:58:10.291Z,1999.90
2022-11-27T08:00:37.512Z,1999.90
2022-11-27T08:03:04.053Z,1999.90
2022-11-27T08:05:30.513Z,1999.90
2022-11-27T08:07:59.993Z,1999.90
2022-11-27T08:10:26.578Z,1999.90
2022-11-27T08:12:53.086Z,1999.90
2022-11-27T08:15:19.541Z,1999.90
2022-11-27T08:17:46.002Z,1999.90
2022-11-27T08:20:12.588Z,1999.90
2022-11-27T08:22:39.081Z,1999.90
2022-11-27T08:25:05.905Z,1999.90
2022-11-27T08:27:33.267Z,1999.90
2022-11-27T08:30:00.226Z,1999.90
2022-11-27T08:32:26.685Z,1999.90
2022-11-27T08:34:53.176Z,1999.90
2022-11-27T08:37:19.644Z,1999.90
2022-11-27T08:39:46.247Z,1999.90
2022-11-27T08:42:12.749Z,1999.90
2022-11-27T08:44:39.495Z,1999.90
2022-11-27T08:47:06.211Z,1999.90
2022-11-27T08:49:32.666Z,1999.90
2022-11-27T08:51:59.126Z,1999.90
2022-11-27T08:54:25.641Z,1999.90
2022-11-27T08:56:52.610Z,1999.90
2022-11-27T08:59:19.300Z,1999.90
2022-11-27T09:01:45.765Z,1999.90
2022-11-27T09:04:12.269Z,1999.90
2022-11-27T09:06:40.722Z,1999.90
2022-11-27T09:09:07.278Z,1999.90
2022-11-27T09:11:33.967Z,1999.90
2022-11-27T09:14:00.883Z,1999.90
2022-11-27T09:16:28.131Z,1999.90
2022-11-27T09:18:54.821Z,1999.90
2022-11-27T09:21:22.180Z,1999.90
2022-11-27T09:23:48.979Z,1999.90
2022-11-27T09:26:16.256Z,1999.90
2022-11-27T09:28:43.171Z,1999.90
2022-11-27T09:31:10.890Z,1999.90
2022-11-27T09:33:38.355Z,1999.90
2022-11-27T09:36:09.369Z,1999.90
2022-11-27T09:38:36.339Z,1999.90
2022-11-27T09:41:11.392Z,1999.90
2022-11-27T09:43:49.272Z,1999.90
2022-11-27T09:46:24.104Z,1999.90
2022-11-27T09:48:50.661Z,1999.90
2022-11-27T09:51:42.819Z,1999.90
2022-11-27T09:54:30.800Z,1999.90
2022-11-27T09:56:57.370Z,1999.90
2022-11-27T09:59:39.590Z,1999.90
2022-11-27T10:02:21.776Z,1999.90
2022-11-27T10:05:12.094Z,1999.90
2022-11-27T10:07:47.107Z,1999.90
2022-11-27T10:10:32.054Z,1999.90
2022-11-27T10:13:13.595Z,1999.90
2022-11-27T10:15:56.105Z,1999.90
2022-11-27T10:18:35.611Z,1999.90
2022-11-27T10:21:34.348Z,1999.90
2022-11-27T10:24:11.272Z,1999.90
2022-11-27T10:26:41.764Z,1999.90
2022-11-27T10:29:26.616Z,1999.90
2022-11-27T10:32:00.233Z,1999.90
2022-11-27T10:34:43.550Z,1999.90
2022-11-27T10:37:32.406Z,1999.90
2022-11-27T10:40:01.898Z,1999.90
2022-11-27T10:42:34.921Z,1999.90
2022-11-27T10:45:22.856Z,1999.90
2022-11-27T10:47:49.459Z,1999.90
2022-11-27T10:50:17.638Z,1999.90
2022-11-27T10:52:55.416Z,1999.90
2022-11-27T10:55:34.599Z,1999.90
2022-11-27T10:58:03.452Z,1999.90
2022-11-27T11:00:29.990Z,1999.90
2022-11-27T11:03:04.815Z,1999.90
2022-11-27T11:05:45.104Z,1999.90
2022-11-27T11:08:19.302Z,1999.90
2022-11-27T11:11:12.270Z,1999.90
2022-11-27T11:13:41.810Z,1999.90
2022-11-27T11:16:14.675Z,1999.90
2022-11-27T11:18:46.325Z,1999.90
2022-11-27T11:21:15.690Z,1999.90
2022-11-27T11:23:42.310Z,1999.90
2022-11-27T11:26:23.259Z,1999.90
2022-11-27T11:28:57.697Z,1999.90
2022-11-27T11:31:32.959Z,1999.90
2022-11-27T11:34:04.077Z,1999.90
2022-11-27T11:36:30.569Z,1999.90
2022-11-27T11:38:57.022Z,1999.90
2022-11-27T11:41:24.469Z,1999.90
2022-11-27T11:43:56.446Z,1999.90
2022-11-27T11:46:25.262Z,1999.90
2022-11-27T11:49:15.892Z,1999.90
2022-11-27T11:51:51.725Z,1999.90
2022-11-27T11:54:28.378Z,1999.90
2022-11-27T11:56:54.877Z,1999.90
2022-11-27T11:59:25.242Z,1999.90
2022-11-27T12:04:56.892Z,1999.90
2022-11-27T12:07:52.388Z,1999.90
2022-11-27T12:10:29.061Z,1999.90
2022-11-27T12:13:06.623Z,1999.90
2022-11-27T12:15:46.618Z,1999.90
2022-11-27T12:18:25.513Z,1999.90
2022-11-27T12:21:10.965Z,1999.90
2022-11-27T12:23:37.318Z,1999.90
2022-11-27T12:26:13.255Z,1999.90
2022-11-27T12:29:07.494Z,1999.90
2022-11-27T12:32:11.672Z,1999.90
2022-11-27T12:34:48.332Z,1999.90
2022-11-27T12:37:29.797Z,1999.90
2022-11-27T12:40:17.971Z,1999.90
2022-11-27T12:42:48.822Z,1999.90
2022-11-27T12:45:22.352Z,1999.90
2022-11-27T12:47:55.583Z,1999.90
2022-11-27T12:50:30.851Z,1999.90
2022-11-27T12:53:11.719Z,1999.90
2022-11-27T12:55:38.696Z,1999.90
2022-11-27T12:58:07.002Z,1999.90
2022-11-27T13:00:35.950Z,1999.90
2022-11-27T13:03:06.730Z,1999.90
2022-11-27T13:05:56.680Z,1999.90
2022-11-27T13:09:18.509Z,1999.90
2022-11-27T13:11:45.034Z,1999.90
2022-11-27T13:14:18.213Z,1999.90
2022-11-27T13:16:47.274Z,1999.90
2022-11-27T13:19:24.382Z,1999.90
2022-11-27T13:21:50.960Z,1999.90
2022-11-27T13:24:17.550Z,1999.90
2022-11-27T13:27:06.519Z,1999.90
2022-11-27T13:29:39.566Z,1999.90
2022-11-27T13:32:06.453Z,1999.90
2022-11-27T13:34:33.409Z,1999.90
2022-11-27T13:37:04.618Z,1999.90
2022-11-27T13:39:38.959Z,1999.90
2022-11-27T13:42:13.794Z,1999.90
2022-11-27T13:44:42.714Z,1999.90
2022-11-27T13:47:19.343Z,1999.90
2022-11-27T13:49:47.955Z,1999.90
2022-11-27T13:52:15.968Z,1999.90
2022-11-27T13:55:01.975Z,1999.90
2022-11-27T13:57:29.563Z,1999.90
2022-11-27T14:00:10.939Z,1999.90
2022-11-27T14:02:47.146Z,1999.90
2022-11-27T14:05:18.052Z,1999.90
2022-11-27T14:07:49.288Z,1999.90
2022-11-27T14:10:19.174Z,1999.90
2022-11-27T14:12:54.099Z,1999.90
2022-11-27T14:15:23.344Z,1999.90
2022-11-27T14:17:50.922Z,1999.90
2022-11-27T14:20:17.459Z,1999.90
2022-11-27T14:23:09.977Z,1999.90
2022-11-27T14:25:33.749Z,1999.90
2022-11-27T14:28:25.923Z,1999.90
2022-11-27T14:30:53.846Z,34.28
2022-11-27T14:33:31.420Z,525.00
2022-11-27T14:36:04.085Z,31.67
2022-11-27T14:38:32.137Z,33.72
2022-11-27T14:41:15.307Z,29.52
2022-11-27T14:43:41.775Z,30.63
2022-11-27T14:46:17.381Z,31.63
2022-11-27T14:48:57.451Z,48.80
2022-11-27T14:51:26.334Z,28.40
2022-11-27T14:53:57.097Z,31.20
2022-11-27T14:56:23.561Z,41.47
2022-11-27T14:58:53.942Z,1017.28
2022-11-27T15:01:27.477Z,1999.90
2022-11-27T15:04:01.382Z,1999.90
2022-11-27T15:06:44.638Z,1999.90
2022-11-27T15:09:31.819Z,1999.90
2022-11-27T15:12:26.145Z,1999.90
2022-11-27T15:15:00.090Z,1999.90
2022-11-27T15:17:28.612Z,1999.90
2022-11-27T15:19:55.502Z,522.53
2022-11-27T15:22:21.966Z,1999.90
2022-11-27T15:24:58.584Z,1999.90
2022-11-27T15:27:25.096Z,1999.90
2022-11-27T15:29:54.615Z,1999.90
2022-11-27T15:32:23.981Z,1999.90
2022-11-27T15:34:51.084Z,1999.90
2022-11-27T15:37:30.754Z,1999.90
2022-11-27T15:39:58.229Z,1999.90
2022-11-27T15:42:26.019Z,1509.80
2022-11-27T15:44:54.268Z,34.55
2022-11-27T15:47:31.035Z,27.75
2022-11-27T15:49:57.948Z,524.97
2022-11-27T15:52:24.463Z,30.38
2022-11-27T15:54:51.113Z,27.45
2022-11-27T15:57:17.646Z,30.63
2022-11-27T15:59:44.103Z,31.90
2022-11-27T16:02:16.074Z,30.92
2022-11-27T16:04:44.111Z,30.23
2022-11-27T16:07:10.671Z,31.38
2022-11-27T16:09:39.523Z,34.80
2022-11-27T16:12:06.102Z,33.67
2022-11-27T16:14:32.602Z,34.47
2022-11-27T16:17:00.507Z,34.88
2022-11-27T16:19:27.187Z,32.47
2022-11-27T16:21:53.669Z,29.00
2022-11-27T16:24:20.168Z,30.88
2022-11-27T16:26:46.955Z,28.65
2022-11-27T16:29:13.488Z,39.38
2022-11-27T16:31:40.107Z,28.48
2022-11-27T16:34:06.722Z,32.88
2022-11-27T16:36:33.232Z,32.22
2022-11-27T16:38:59.741Z,31.48
2022-11-27T16:41:26.327Z,28.02
2022-11-27T16:43:54.978Z,39.35
2022-11-27T16:46:26.306Z,27.52
2022-11-27T16:48:53.685Z,29.40
2022-11-27T16:51:25.191Z,30.08
2022-11-27T16:53:53.360Z,28.63
2022-11-27T16:56:22.644Z,31.75
2022-11-27T16:58:49.234Z,30.25
2022-11-27T17:01:17.904Z,28.90
2022-11-27T17:03:45.047Z,28.52
2022-11-27T17:06:13.390Z,36.08
2022-11-27T17:08:39.842Z,32.88
2022-11-27T17:11:13.710Z,32.22
2022-11-27T17:13:40.472Z,31.80
2022-11-27T17:16:08.599Z,30.55
2022-11-27T17:18:39.027Z,33.00
2022-11-27T17:23:33.635Z,27.80
2022-11-27T17:26:07.084Z,33.28
2022-11-27T17:28:33.565Z,31.25
2022-11-27T17:31:00.004Z,27.35
2022-11-27T17:33:26.518Z,28.65
2022-11-27T17:35:52.970Z,27.85
2022-11-27T17:38:19.433Z,29.35
2022-11-27T17:40:45.893Z,27.77
2022-11-27T17:43:12.416Z,26.98
2022-11-27T17:45:42.029Z,28.80
2022-11-27T17:48:08.542Z,30.15
2022-11-27T17:50:35.033Z,26.33
2022-11-27T17:53:03.417Z,28.65
2022-11-27T17:55:30.005Z,26.30
2022-11-27T17:57:56.621Z,26.13
2022-11-27T18:00:23.208Z,27.70
2022-11-27T18:02:50.189Z,26.00
2022-11-27T18:05:16.892Z,27.90
2022-11-27T18:07:44.284Z,44.40
2022-11-27T18:10:12.477Z,28.73
2022-11-27T18:12:39.178Z,26.95
2022-11-27T18:15:06.188Z,23.20
2022-11-27T18:17:33.004Z,26.52
2022-11-27T18:20:00.648Z,29.75
2022-11-27T18:22:27.296Z,27.58
2022-11-27T18:24:53.780Z,27.38
2022-11-27T18:27:20.367Z,37.05
2022-11-27T18:29:47.209Z,26.30
2022-11-27T18:32:14.545Z,26.67
2022-11-27T18:34:41.366Z,27.30
2022-11-27T18:37:08.201Z,29.30
2022-11-27T18:39:36.007Z,28.80
2022-11-27T18:42:03.444Z,30.00
2022-11-27T18:44:30.064Z,28.90
2022-11-27T18:46:56.704Z,26.80
2022-11-27T18:49:23.692Z,27.25
2022-11-27T18:51:53.913Z,24.88
2022-11-27T18:54:21.149Z,34.17
2022-11-27T18:56:48.192Z,61.17
2022-11-27T18:59:14.871Z,26.00
2022-11-27T19:01:42.758Z,28.52
2022-11-27T19:04:10.412Z,27.05
2022-11-27T19:06:37.324Z,29.77
2022-11-27T19:09:03.972Z,35.08
2022-11-27T19:11:30.911Z,34.40
2022-11-27T19:13:57.667Z,26.98
2022-11-27T19:16:29.012Z,34.58
2022-11-27T19:18:59.004Z,38.35
2022-11-27T19:21:26.878Z,36.75
2022-11-27T19:23:53.466Z,30.55
2022-11-27T19:26:21.685Z,28.35
2022-11-27T19:28:48.874Z,28.83
2022-11-27T19:31:16.390Z,34.67
2022-11-27T19:33:43.114Z,30.35
2022-11-27T19:36:12.822Z,39.42
2022-11-27T19:38:40.725Z,32.75
2022-11-27T19:41:11.393Z,35.67
2022-11-27T19:43:37.912Z,39.28
2022-11-27T19:46:19.405Z,30.92
2022-11-27T19:48:45.924Z,49.90
2022-11-27T19:51:13.041Z,31.70
2022-11-27T19:53:39.572Z,25.10
2022-11-27T19:56:06.435Z,27.23
2022-11-27T19:58:32.913Z,26.35
2022-11-27T20:01:16.079Z,27.42
2022-11-27T20:03:42.831Z,27.10
2022-11-27T20:06:17.094Z,34.05
2022-11-27T20:08:44.066Z,27.42
2022-11-27T20:11:11.837Z,25.38
2022-11-27T20:13:38.442Z,25.23
2022-11-27T20:16:15.172Z,28.33
2022-11-27T20:18:41.800Z,25.92
2022-11-27T20:21:09.446Z,25.10
2022-11-27T20:23:35.974Z,28.52
2022-11-27T20:26:06.562Z,27.48
2022-11-27T20:28:33.257Z,25.70
2022-11-27T20:31:01.050Z,25.13
2022-11-27T20:33:27.839Z,29.45
2022-11-27T20:35:55.055Z,26.52
2022-11-27T20:38:21.881Z,25.98
2022-11-27T20:40:48.774Z,24.90
2022-11-27T20:43:15.474Z,26.23
2022-11-27T20:45:42.125Z,24.92
2022-11-27T20:48:08.933Z,25.13
2022-11-27T20:50:36.289Z,27.05
2022-11-27T20:53:02.755Z,23.85
2022-11-27T20:55:29.231Z,26.30
2022-11-27T20:57:55.767Z,25.10
2022-11-27T21:00:22.639Z,25.52
2022-11-27T21:02:49.182Z,27.42
2022-11-27T21:05:15.998Z,27.58
2022-11-27T21:07:42.833Z,520.22
2022-11-27T21:10:11.403Z,1999.90
2022-11-27T21:12:38.092Z,1999.90
2022-11-27T21:15:05.175Z,1999.90
2022-11-27T21:17:31.733Z,1999.90
2022-11-27T21:20:01.305Z,1999.90
2022-11-27T21:22:28.373Z,1999.90
2022-11-27T21:24:54.908Z,1999.90
2022-11-27T21:27:21.388Z,1999.90
2022-11-27T21:29:47.842Z,1999.90
2022-11-27T21:32:14.713Z,1999.90
2022-11-27T21:34:41.332Z,1999.90
2022-11-27T21:37:08.029Z,1999.90
2022-11-27T21:39:34.558Z,1999.90
2022-11-27T21:42:01.017Z,1999.90
2022-11-27T21:44:27.825Z,1999.90
2022-11-27T21:46:54.388Z,1999.90
2022-11-27T21:49:20.906Z,1999.90
2022-11-27T21:51:51.033Z,1999.90
2022-11-27T21:54:18.737Z,1999.90
2022-11-27T21:56:45.201Z,1999.90
2022-11-27T21:59:14.824Z,1999.90
2022-11-27T22:01:41.388Z,1999.90
2022-11-27T22:04:07.947Z,1999.90
2022-11-27T22:06:38.885Z,1999.90
2022-11-27T22:09:07.389Z,1999.90
2022-11-27T22:11:35.746Z,1999.90
2022-11-27T22:14:04.199Z,1999.90
2022-11-27T22:16:32.255Z,1999.90
2022-11-27T22:18:59.068Z,1999.90
2022-11-27T22:21:27.196Z,1999.90
2022-11-27T22:23:53.796Z,1999.90
2022-11-27T22:26:21.089Z,1999.90
2022-11-27T22:28:47.873Z,1999.90
2022-11-27T22:31:20.200Z,1999.90
2022-11-27T22:33:46.763Z,1999.90
2022-11-27T22:36:24.520Z,1999.90
2022-11-27T22:38:52.287Z,1999.90
2022-11-27T22:41:19.791Z,1999.90
2022-11-27T22:43:46.315Z,1999.90
2022-11-27T22:46:29.523Z,1999.90
2022-11-27T22:48:58.032Z,1999.90
2022-11-27T22:51:25.545Z,1999.90
2022-11-27T22:53:52.453Z,1999.90
2022-11-27T22:56:18.918Z,1999.90
2022-11-27T22:58:45.661Z,1999.90
2022-11-27T23:01:17.284Z,1999.90
2022-11-27T23:03:43.788Z,1999.90
2022-11-27T23:06:12.143Z,1999.90
2022-11-27T23:08:42.842Z,1999.90
2022-11-27T23:11:10.412Z,1999.90
2022-11-27T23:13:36.990Z,1999.90
2022-11-27T23:16:04.584Z,1999.90
2022-11-27T23:18:31.461Z,1999.90
2022-11-27T23:20:57.928Z,1999.90
2022-11-27T23:23:24.390Z,1999.90
2022-11-27T23:25:50.860Z,1999.90
2022-11-27T23:28:17.335Z,1999.90
2022-11-27T23:30:43.791Z,1999.90
2022-11-27T23:33:10.249Z,1999.90
2022-11-27T23:35:36.708Z,1999.90
2022-11-27T23:38:03.488Z,1999.90
2022-11-27T23:40:29.970Z,1999.90
2022-11-27T23:42:56.449Z,1999.90
2022-11-27T23:45:23.062Z,1999.90
2022-11-27T23:47:50.420Z,1999.90
2022-11-27T23:50:17.191Z,1999.90
2022-11-27T23:52:43.697Z,1999.90
2022-11-27T23:55:10.154Z,1999.90
2022-11-27T23:57:36.626Z,1999.90
